Atwood, Colorado
Current Conditions -  °F | °C
As of 12:10 AM on Thursday 18 Dec 2014 (Local Time) from KSTK Reporting Station
Moderate Fog Moderate Fog  
Wind Chill: -8°   Ceiling: 100
Heat Index: -5°   Visibility: 0.5mi
Dew Point: -5°   Wind: 5mph
Humidity: 100%   Direction: 220°SW
Pressure: 30"   Gusts: NA
Location:  40.55°N, 103.27°W
Report Text: KSTK 180710Z AUTO 22004KT 1/2SM FZFG OVC001 M05/M05 A3000 RMK AO2
Loading
Personal Weather Stations






























Interactive Weather Map New forecast layout! Learn more

10-Day Weather Forecast

Advertisements
Track Severe Weather on mobile